createdAt,value
2017-08-08T00:00:43.695Z,3.60
2017-08-08T00:03:10.447Z,4.00
2017-08-08T00:05:37.147Z,4.07
2017-08-08T00:08:03.839Z,3.83
2017-08-08T00:10:30.566Z,4.43
2017-08-08T00:12:57.309Z,4.27
2017-08-08T00:15:24.026Z,3.57
2017-08-08T00:17:50.749Z,3.83
2017-08-08T00:20:17.530Z,3.80
2017-08-08T00:22:44.250Z,4.13
2017-08-08T00:25:10.930Z,4.20
2017-08-08T00:27:37.661Z,3.90
2017-08-08T00:30:04.338Z,3.93
2017-08-08T00:32:31.067Z,4.20
2017-08-08T00:34:57.757Z,3.97
2017-08-08T00:37:24.507Z,4.83
2017-08-08T00:39:51.227Z,4.10
2017-08-08T00:42:17.952Z,4.70
2017-08-08T00:44:44.689Z,4.17
2017-08-08T00:47:11.383Z,4.00
2017-08-08T00:49:38.066Z,4.33
2017-08-08T00:52:04.810Z,4.10
2017-08-08T00:54:31.490Z,4.50
2017-08-08T00:56:58.173Z,4.33
2017-08-08T00:59:24.894Z,4.17
2017-08-08T01:01:51.630Z,5.23
2017-08-08T01:04:18.323Z,4.33
2017-08-08T01:06:45.054Z,4.80
2017-08-08T01:09:11.803Z,5.20
2017-08-08T01:11:38.492Z,4.23
2017-08-08T01:14:05.201Z,4.80
2017-08-08T01:16:31.934Z,4.70
2017-08-08T01:18:58.611Z,4.40
2017-08-08T01:21:25.426Z,4.40
2017-08-08T01:23:52.123Z,5.00
2017-08-08T01:26:18.861Z,4.23
2017-08-08T01:28:45.563Z,4.50
2017-08-08T01:31:12.262Z,4.17
2017-08-08T01:33:38.979Z,5.07
2017-08-08T01:36:05.686Z,4.37
2017-08-08T01:38:32.443Z,4.70
2017-08-08T01:40:59.127Z,4.70
2017-08-08T01:43:25.814Z,4.80
2017-08-08T01:45:52.568Z,4.60
2017-08-08T01:48:19.257Z,4.77
2017-08-08T01:50:45.945Z,5.00
2017-08-08T01:53:12.655Z,4.67
2017-08-08T01:55:39.359Z,5.40
2017-08-08T01:58:06.075Z,5.00
2017-08-08T02:00:32.775Z,4.60
2017-08-08T02:02:59.479Z,5.00
2017-08-08T02:05:26.181Z,5.50
2017-08-08T02:07:52.955Z,5.10
2017-08-08T02:10:19.642Z,4.63
2017-08-08T02:12:46.374Z,4.60
2017-08-08T02:15:13.062Z,5.07
2017-08-08T02:17:39.737Z,5.20
2017-08-08T02:20:06.473Z,4.57
2017-08-08T02:22:33.162Z,5.50
2017-08-08T02:24:59.894Z,5.17
2017-08-08T02:27:26.612Z,5.60
2017-08-08T02:29:53.325Z,4.70
2017-08-08T02:32:20.058Z,5.17
2017-08-08T02:34:46.806Z,4.90
2017-08-08T02:37:13.503Z,5.37
2017-08-08T02:39:40.214Z,4.63
2017-08-08T02:42:06.956Z,5.27
2017-08-08T02:44:33.651Z,4.90
2017-08-08T02:47:00.381Z,4.70
2017-08-08T02:49:27.126Z,4.80
2017-08-08T02:51:53.823Z,5.33
2017-08-08T02:54:20.503Z,4.70
2017-08-08T02:56:47.243Z,4.90
2017-08-08T02:59:13.933Z,5.50
2017-08-08T03:01:40.699Z,5.27
2017-08-08T03:04:07.385Z,4.87
2017-08-08T03:06:34.142Z,5.40
2017-08-08T03:09:00.847Z,5.23
2017-08-08T03:11:27.539Z,4.87
2017-08-08T03:13:54.272Z,5.03
2017-08-08T03:16:20.961Z,4.90
2017-08-08T03:18:47.717Z,4.73
2017-08-08T03:21:14.397Z,5.80
2017-08-08T03:23:41.109Z,5.10
2017-08-08T03:26:07.820Z,5.10
2017-08-08T03:28:34.533Z,5.13
2017-08-08T03:31:01.226Z,5.63
2017-08-08T03:33:27.948Z,4.97
2017-08-08T03:35:54.666Z,5.13
2017-08-08T03:38:21.390Z,6.07
2017-08-08T03:40:48.079Z,5.60
2017-08-08T03:43:16.567Z,4.80
2017-08-08T03:45:43.199Z,4.97
2017-08-08T03:48:09.861Z,5.00
2017-08-08T03:50:36.550Z,5.40
2017-08-08T03:53:03.236Z,5.43
2017-08-08T03:55:29.927Z,4.43
2017-08-08T03:57:56.607Z,4.57
2017-08-08T04:00:23.295Z,5.30
2017-08-08T04:02:49.976Z,4.83
2017-08-08T04:05:16.684Z,4.80
2017-08-08T04:07:43.396Z,4.90
2017-08-08T04:10:10.052Z,5.30
2017-08-08T04:12:36.743Z,5.70
2017-08-08T04:15:03.442Z,4.90
2017-08-08T04:17:30.085Z,5.53
2017-08-08T04:19:56.728Z,5.23
2017-08-08T04:22:23.410Z,4.93
2017-08-08T04:24:50.045Z,4.67
2017-08-08T04:27:16.735Z,5.20
2017-08-08T04:29:43.375Z,4.20
2017-08-08T04:32:10.067Z,5.27
2017-08-08T04:34:36.712Z,5.70
2017-08-08T04:37:03.368Z,6.20
2017-08-08T04:39:30.080Z,4.90
2017-08-08T04:41:56.718Z,4.97
2017-08-08T04:44:23.394Z,5.40
2017-08-08T04:46:50.029Z,5.30
2017-08-08T04:49:16.719Z,5.70
2017-08-08T04:51:43.347Z,5.33
2017-08-08T04:54:09.984Z,6.20
2017-08-08T04:56:36.751Z,5.33
2017-08-08T04:59:03.377Z,6.50
2017-08-08T05:01:30.051Z,6.13
2017-08-08T05:03:56.683Z,6.57
2017-08-08T05:06:23.328Z,5.90
2017-08-08T05:08:49.999Z,6.10
2017-08-08T05:11:16.683Z,6.07
2017-08-08T05:13:43.305Z,6.23
2017-08-08T05:16:09.943Z,6.20
2017-08-08T05:18:36.614Z,5.37
2017-08-08T05:21:03.251Z,6.23
2017-08-08T05:23:29.883Z,5.83
2017-08-08T05:25:56.563Z,5.60
2017-08-08T05:28:23.247Z,7.73
2017-08-08T05:30:49.878Z,7.07
2017-08-08T05:33:16.548Z,6.10
2017-08-08T05:35:44.102Z,6.50
2017-08-08T05:38:10.822Z,5.73
2017-08-08T05:40:37.461Z,6.87
2017-08-08T05:43:04.144Z,6.30
2017-08-08T05:45:30.781Z,5.77
2017-08-08T05:47:57.465Z,6.77
2017-08-08T05:50:24.140Z,7.03
2017-08-08T05:52:50.836Z,7.20
2017-08-08T05:55:17.490Z,7.27
2017-08-08T05:57:44.234Z,7.37
2017-08-08T06:00:10.912Z,6.47
2017-08-08T06:02:37.551Z,6.27
2017-08-08T06:05:04.351Z,8.13
2017-08-08T06:07:31.031Z,7.57
2017-08-08T06:09:57.695Z,7.20
2017-08-08T06:12:24.400Z,7.50
2017-08-08T06:14:51.039Z,7.43
2017-08-08T06:17:17.683Z,7.87
2017-08-08T06:19:44.365Z,7.33
2017-08-08T06:22:11.055Z,7.93
2017-08-08T06:24:37.801Z,8.30
2017-08-08T06:27:04.552Z,7.53
2017-08-08T06:29:31.247Z,7.90
2017-08-08T06:31:57.904Z,7.43
2017-08-08T06:34:24.631Z,7.60
2017-08-08T06:36:51.299Z,7.67
2017-08-08T06:39:17.972Z,6.83
2017-08-08T06:41:44.622Z,7.17
2017-08-08T06:44:11.299Z,7.13
2017-08-08T06:46:37.990Z,6.83
2017-08-08T06:49:04.641Z,7.40
2017-08-08T06:51:31.330Z,8.07
2017-08-08T06:53:58.055Z,6.30
2017-08-08T06:56:24.731Z,7.10
2017-08-08T06:58:51.378Z,7.10
2017-08-08T07:01:18.020Z,7.00
2017-08-08T07:03:44.692Z,7.40
2017-08-08T07:06:11.366Z,6.80
2017-08-08T07:08:38.087Z,7.30
2017-08-08T07:11:04.736Z,7.30
2017-08-08T07:13:31.449Z,7.20
2017-08-08T07:15:58.126Z,8.27
2017-08-08T07:18:24.767Z,7.90
2017-08-08T07:20:51.456Z,7.80
2017-08-08T07:23:18.127Z,7.20
2017-08-08T07:25:44.819Z,7.50
2017-08-08T07:28:11.459Z,6.10
2017-08-08T07:30:38.100Z,6.93
2017-08-08T07:33:04.805Z,7.30
2017-08-08T07:35:31.470Z,6.80
2017-08-08T07:37:58.163Z,7.20
2017-08-08T07:40:24.811Z,6.40
2017-08-08T07:42:51.479Z,6.67
2017-08-08T07:45:18.160Z,5.87
2017-08-08T07:47:45.207Z,6.70
2017-08-08T07:50:11.839Z,6.90
2017-08-08T07:52:38.470Z,6.67
2017-08-08T07:55:05.177Z,7.43
2017-08-08T07:57:31.832Z,7.13
2017-08-08T07:59:58.509Z,7.33
2017-08-08T08:02:25.196Z,6.47
2017-08-08T08:04:51.882Z,6.80
2017-08-08T08:07:18.572Z,6.63
2017-08-08T08:09:45.269Z,6.53
2017-08-08T08:12:11.955Z,6.17
2017-08-08T08:14:38.604Z,5.83
2017-08-08T08:17:05.289Z,5.83
2017-08-08T08:19:32.003Z,6.63
2017-08-08T08:21:58.659Z,6.10
2017-08-08T08:24:25.299Z,5.53
2017-08-08T08:26:51.968Z,6.23
2017-08-08T08:29:18.595Z,5.57
2017-08-08T08:31:45.270Z,6.33
2017-08-08T08:34:11.951Z,5.63
2017-08-08T08:36:38.627Z,5.97
2017-08-08T08:39:05.318Z,5.87
2017-08-08T08:41:31.950Z,6.10
2017-08-08T08:43:58.584Z,6.23
2017-08-08T08:46:25.276Z,5.90
2017-08-08T08:48:51.912Z,4.87
2017-08-08T08:51:18.556Z,5.10
2017-08-08T08:53:45.239Z,5.43
2017-08-08T08:56:11.921Z,5.93
2017-08-08T08:58:38.619Z,5.47
2017-08-08T09:01:05.260Z,5.37
2017-08-08T09:03:31.947Z,5.93
2017-08-08T09:05:58.683Z,4.90
2017-08-08T09:08:25.335Z,5.77
2017-08-08T09:10:51.992Z,5.53
2017-08-08T09:13:18.671Z,5.43
2017-08-08T09:15:45.351Z,5.73
2017-08-08T09:18:12.036Z,5.03
2017-08-08T09:20:38.663Z,4.93
2017-08-08T09:23:05.323Z,5.30
2017-08-08T09:25:31.988Z,5.57
2017-08-08T09:27:58.632Z,5.60
2017-08-08T09:30:25.318Z,5.40
2017-08-08T09:32:51.963Z,5.67
2017-08-08T09:35:18.614Z,5.10
2017-08-08T09:37:45.288Z,5.50
2017-08-08T09:40:11.968Z,4.87
2017-08-08T09:42:38.657Z,4.50
2017-08-08T09:45:05.299Z,4.20
2017-08-08T09:47:31.941Z,5.13
2017-08-08T09:49:58.652Z,4.40
2017-08-08T09:52:25.294Z,5.20
2017-08-08T09:54:51.983Z,4.67
2017-08-08T09:57:18.630Z,4.70
2017-08-08T09:59:45.339Z,4.53
2017-08-08T10:02:11.998Z,4.60
2017-08-08T10:04:38.641Z,6.03
2017-08-08T10:07:05.333Z,4.57
2017-08-08T10:09:32.022Z,3.87
2017-08-08T10:11:58.664Z,5.10
2017-08-08T10:14:25.347Z,4.30
2017-08-08T10:16:51.987Z,3.97
2017-08-08T10:19:18.679Z,3.87
2017-08-08T10:21:45.344Z,3.50
2017-08-08T10:24:12.039Z,4.10
2017-08-08T10:26:38.715Z,4.07
2017-08-08T10:29:05.406Z,3.23
2017-08-08T10:31:32.104Z,3.20
2017-08-08T10:33:58.777Z,3.73
2017-08-08T10:36:25.467Z,4.23
2017-08-08T10:38:52.128Z,3.50
2017-08-08T10:41:18.783Z,3.43
2017-08-08T10:43:45.475Z,3.80
2017-08-08T10:46:13.010Z,3.30
2017-08-08T10:48:39.712Z,3.30
2017-08-08T10:51:06.364Z,4.13
2017-08-08T10:53:33.018Z,3.53
2017-08-08T10:55:59.824Z,3.73
2017-08-08T10:58:26.476Z,3.97
2017-08-08T11:00:53.120Z,3.87
2017-08-08T11:03:19.798Z,3.60
2017-08-08T11:05:46.483Z,3.67
2017-08-08T11:08:13.124Z,3.73
2017-08-08T11:10:39.824Z,3.80
2017-08-08T11:13:06.465Z,3.40
2017-08-08T11:15:33.106Z,3.83
2017-08-08T11:17:59.803Z,4.13
2017-08-08T11:20:26.459Z,4.30
2017-08-08T11:22:53.092Z,4.30
2017-08-08T11:25:19.778Z,4.70
2017-08-08T11:27:46.439Z,4.57
2017-08-08T11:30:13.091Z,4.03
2017-08-08T11:32:39.804Z,4.00
2017-08-08T11:35:06.444Z,3.80
2017-08-08T11:37:33.071Z,4.40
2017-08-08T11:39:59.758Z,4.40
2017-08-08T11:42:26.404Z,3.50
2017-08-08T11:44:53.095Z,4.00
2017-08-08T11:47:19.745Z,3.70
2017-08-08T11:49:46.383Z,3.20
2017-08-08T11:52:13.053Z,3.60
2017-08-08T11:54:39.718Z,4.07
2017-08-08T11:57:06.400Z,3.80
2017-08-08T11:59:33.047Z,4.33
2017-08-08T12:01:59.696Z,4.40
2017-08-08T12:04:26.371Z,4.60
2017-08-08T12:06:53.003Z,5.40
2017-08-08T12:09:19.727Z,4.80
2017-08-08T12:11:46.362Z,4.03
2017-08-08T12:14:12.999Z,3.70
2017-08-08T12:16:39.667Z,3.77
2017-08-08T12:19:06.297Z,3.40
2017-08-08T12:21:32.971Z,3.70
2017-08-08T12:23:59.598Z,2.70
2017-08-08T12:26:26.276Z,2.47
2017-08-08T12:28:52.960Z,2.63
2017-08-08T12:31:19.595Z,2.60
2017-08-08T12:33:46.271Z,2.50
2017-08-08T12:36:12.910Z,2.33
2017-08-08T12:38:39.592Z,2.50
2017-08-08T12:41:06.230Z,2.43
2017-08-08T12:43:32.919Z,2.40
2017-08-08T12:45:59.552Z,2.40
2017-08-08T12:48:26.190Z,2.37
2017-08-08T12:50:52.859Z,1.87
2017-08-08T12:53:19.509Z,2.80
2017-08-08T12:55:46.146Z,2.40
2017-08-08T12:58:12.840Z,2.00
2017-08-08T13:00:39.521Z,2.10
2017-08-08T13:03:06.168Z,2.17
2017-08-08T13:05:32.832Z,1.93
2017-08-08T13:07:59.470Z,1.93
2017-08-08T13:10:26.171Z,2.10
2017-08-08T13:12:53.036Z,2.30
2017-08-08T13:15:19.666Z,2.10
2017-08-08T13:17:46.346Z,2.03
2017-08-08T13:20:12.995Z,1.70
2017-08-08T13:22:39.698Z,1.90
2017-08-08T13:25:06.330Z,1.57
2017-08-08T13:27:32.971Z,2.20
2017-08-08T13:29:59.649Z,2.10
2017-08-08T13:32:26.298Z,2.30
2017-08-08T13:34:53.079Z,2.10
2017-08-08T13:37:19.736Z,2.17
2017-08-08T13:39:46.408Z,2.20
2017-08-08T13:42:13.094Z,2.47
2017-08-08T13:44:39.721Z,2.20
2017-08-08T13:47:06.375Z,2.20
2017-08-08T13:49:33.051Z,1.90
2017-08-08T13:51:59.696Z,2.00
2017-08-08T13:54:26.336Z,2.00
2017-08-08T13:56:53.046Z,1.50
2017-08-08T13:59:19.691Z,1.90
2017-08-08T14:01:46.322Z,1.50
2017-08-08T14:04:13.016Z,1.57
2017-08-08T14:06:39.651Z,1.67
2017-08-08T14:09:06.312Z,1.80
2017-08-08T14:11:32.978Z,1.90
2017-08-08T14:13:59.650Z,1.93
2017-08-08T14:16:26.334Z,1.73
2017-08-08T14:18:52.962Z,1.60
2017-08-08T14:21:19.596Z,1.67
2017-08-08T14:23:46.275Z,1.20
2017-08-08T14:26:12.911Z,1.03
2017-08-08T14:28:39.531Z,1.27
2017-08-08T14:31:06.212Z,1.00
2017-08-08T14:33:32.849Z,1.03
2017-08-08T14:35:59.500Z,1.73
2017-08-08T14:38:26.189Z,1.73
2017-08-08T14:40:52.824Z,1.40
2017-08-08T14:43:19.462Z,1.20
2017-08-08T14:45:46.143Z,1.30
2017-08-08T14:48:12.831Z,1.40
2017-08-08T14:50:39.471Z,1.40
2017-08-08T14:53:06.200Z,1.17
2017-08-08T14:55:32.843Z,1.40
2017-08-08T14:57:59.487Z,1.07
2017-08-08T15:00:26.187Z,1.30
2017-08-08T15:02:52.840Z,1.57
2017-08-08T15:05:19.487Z,1.30
2017-08-08T15:07:46.161Z,2.10
2017-08-08T15:10:12.811Z,1.40
2017-08-08T15:12:39.512Z,1.63
2017-08-08T15:15:06.160Z,2.10
2017-08-08T15:17:32.794Z,1.73
2017-08-08T15:19:59.471Z,1.40
2017-08-08T15:22:26.156Z,1.20
2017-08-08T15:24:52.819Z,1.40
2017-08-08T15:27:19.495Z,1.30
2017-08-08T15:29:46.133Z,1.20
2017-08-08T15:32:12.795Z,1.20
2017-08-08T15:34:39.432Z,1.50
2017-08-08T15:37:06.105Z,1.40
2017-08-08T15:39:32.737Z,1.47
2017-08-08T15:41:59.391Z,1.40
2017-08-08T15:44:26.068Z,1.40
2017-08-08T15:46:52.706Z,1.40
2017-08-08T15:49:19.406Z,1.20
2017-08-08T15:51:46.087Z,1.20
2017-08-08T15:54:12.718Z,1.90
2017-08-08T15:56:39.382Z,1.67
2017-08-08T15:59:06.015Z,1.50
2017-08-08T16:01:33.657Z,1.50
2017-08-08T16:04:00.296Z,1.80
2017-08-08T16:06:26.962Z,1.57
2017-08-08T16:08:53.610Z,1.30
2017-08-08T16:11:20.279Z,1.40
2017-08-08T16:13:46.908Z,1.43
2017-08-08T16:16:13.611Z,1.60
2017-08-08T16:18:40.248Z,1.40
2017-08-08T16:21:06.928Z,1.30
2017-08-08T16:23:33.564Z,1.30
2017-08-08T16:26:00.244Z,1.40
2017-08-08T16:28:26.875Z,1.63
2017-08-08T16:30:53.510Z,1.20
2017-08-08T16:33:20.260Z,1.17
2017-08-08T16:35:46.906Z,1.40
2017-08-08T16:38:13.591Z,1.33
2017-08-08T16:40:40.276Z,1.40
2017-08-08T16:43:06.918Z,1.20
2017-08-08T16:45:33.606Z,1.60
2017-08-08T16:48:00.244Z,1.40
2017-08-08T16:50:26.930Z,1.37
2017-08-08T16:52:53.618Z,1.63
2017-08-08T16:55:20.258Z,1.40
2017-08-08T16:57:46.978Z,1.13
2017-08-08T17:00:13.601Z,1.80
2017-08-08T17:02:40.235Z,1.30
2017-08-08T17:05:06.922Z,1.27
2017-08-08T17:07:33.565Z,1.20
2017-08-08T17:10:00.206Z,1.77
2017-08-08T17:12:26.865Z,1.30
2017-08-08T17:14:53.559Z,1.30
2017-08-08T17:17:20.244Z,2.00
2017-08-08T17:19:46.892Z,1.70
2017-08-08T17:22:13.582Z,1.10
2017-08-08T17:24:40.211Z,1.37
2017-08-08T17:27:06.857Z,1.53
2017-08-08T17:29:33.541Z,1.40
2017-08-08T17:32:00.170Z,1.60
2017-08-08T17:34:26.803Z,1.40
2017-08-08T17:36:53.482Z,1.07
2017-08-08T17:39:20.172Z,1.53
2017-08-08T17:41:46.877Z,1.30
2017-08-08T17:44:13.523Z,1.43
2017-08-08T17:46:40.259Z,1.50
2017-08-08T17:49:06.969Z,1.40
2017-08-08T17:51:33.696Z,1.23
2017-08-08T17:54:00.382Z,1.70
2017-08-08T17:56:27.211Z,1.60
2017-08-08T17:58:53.911Z,1.30
2017-08-08T18:01:20.612Z,1.87
2017-08-08T18:03:48.344Z,1.60
2017-08-08T18:06:15.536Z,1.47
2017-08-08T18:08:42.276Z,1.20
2017-08-08T18:11:08.966Z,1.53
2017-08-08T18:13:35.649Z,1.43
2017-08-08T18:16:02.280Z,1.50
2017-08-08T18:18:28.926Z,1.60
2017-08-08T18:20:55.602Z,1.90
2017-08-08T18:23:22.327Z,1.97
2017-08-08T18:25:49.026Z,1.70
2017-08-08T18:28:15.717Z,1.60
2017-08-08T18:30:42.352Z,1.57
2017-08-08T18:33:08.994Z,1.63
2017-08-08T18:35:35.731Z,1.23
2017-08-08T18:38:02.369Z,1.57
2017-08-08T18:40:29.887Z,1.70
2017-08-08T18:42:57.354Z,1.60
2017-08-08T18:45:23.998Z,1.70
2017-08-08T18:47:50.667Z,1.60
2017-08-08T18:50:17.308Z,1.70
2017-08-08T18:52:44.019Z,1.20
2017-08-08T18:55:11.603Z,1.30
2017-08-08T18:57:38.247Z,1.20
2017-08-08T19:00:04.965Z,1.60
2017-08-08T19:02:31.603Z,1.60
2017-08-08T19:04:58.243Z,1.47
2017-08-08T19:07:24.938Z,1.70
2017-08-08T19:09:51.571Z,1.70
2017-08-08T19:12:18.230Z,2.07
2017-08-08T19:14:44.980Z,1.90
2017-08-08T19:17:11.648Z,1.80
2017-08-08T19:19:38.389Z,1.47
2017-08-08T19:22:05.047Z,1.53
2017-08-08T19:24:31.727Z,1.80
2017-08-08T19:26:58.431Z,1.40
2017-08-08T19:29:25.071Z,1.60
2017-08-08T19:31:51.773Z,1.57
2017-08-08T19:34:18.421Z,1.70
2017-08-08T19:36:45.098Z,1.50
2017-08-08T19:39:12.414Z,1.80
2017-08-08T19:41:39.105Z,1.80
2017-08-08T19:44:05.831Z,1.70
2017-08-08T19:46:32.477Z,1.73
2017-08-08T19:48:59.128Z,1.70
2017-08-08T19:51:25.817Z,2.30
2017-08-08T19:53:52.482Z,1.40
2017-08-08T19:56:19.123Z,2.77
2017-08-08T19:58:45.831Z,2.63
2017-08-08T20:01:12.496Z,1.93
2017-08-08T20:03:39.179Z,1.80
2017-08-08T20:06:05.816Z,1.80
2017-08-08T20:08:32.490Z,2.17
2017-08-08T20:10:59.192Z,1.60
2017-08-08T20:13:25.831Z,1.90
2017-08-08T20:15:52.468Z,2.40
2017-08-08T20:18:19.155Z,2.00
2017-08-08T20:20:45.844Z,1.80
2017-08-08T20:23:12.485Z,2.40
2017-08-08T20:25:39.118Z,2.00
2017-08-08T20:28:05.793Z,2.13
2017-08-08T20:30:32.455Z,2.23
2017-08-08T20:32:59.107Z,1.93
2017-08-08T20:35:25.785Z,2.03
2017-08-08T20:37:52.443Z,2.37
2017-08-08T20:40:19.124Z,2.60
2017-08-08T20:42:45.771Z,2.10
2017-08-08T20:45:12.457Z,2.20
2017-08-08T20:50:12.336Z,1.33
2017-08-08T20:52:38.967Z,1.27
2017-08-08T20:55:05.643Z,1.10
2017-08-08T20:57:32.358Z,0.97
2017-08-08T20:59:58.997Z,1.40
2017-08-08T21:02:25.636Z,1.03
2017-08-08T21:04:52.327Z,1.00
2017-08-08T21:07:18.961Z,1.07
2017-08-08T21:09:45.597Z,1.10
2017-08-08T21:12:12.265Z,1.10
2017-08-08T21:14:38.902Z,1.10
2017-08-08T21:17:05.583Z,1.00
2017-08-08T21:19:32.304Z,1.03
2017-08-08T21:21:58.964Z,1.03
2017-08-08T21:24:25.667Z,1.07
2017-08-08T21:26:52.380Z,1.10
2017-08-08T21:29:19.032Z,1.00
2017-08-08T21:31:45.677Z,0.90
2017-08-08T21:34:12.355Z,0.87
2017-08-08T21:36:39.007Z,1.10
2017-08-08T21:39:05.676Z,1.10
2017-08-08T21:41:32.459Z,1.10
2017-08-08T21:43:59.149Z,1.23
2017-08-08T21:46:25.779Z,1.10
2017-08-08T21:48:52.485Z,1.00
2017-08-08T21:51:19.128Z,1.30
2017-08-08T21:53:45.775Z,1.20
2017-08-08T21:56:12.446Z,0.90
2017-08-08T21:58:39.074Z,1.40
2017-08-08T22:01:05.707Z,1.30
2017-08-08T22:03:32.378Z,1.27
2017-08-08T22:05:59.022Z,1.27
2017-08-08T22:08:25.707Z,1.00
2017-08-08T22:10:52.371Z,1.37
2017-08-08T22:13:19.003Z,1.13
2017-08-08T22:15:45.693Z,1.07
2017-08-08T22:18:12.353Z,1.20
2017-08-08T22:20:39.008Z,1.10
2017-08-08T22:23:05.724Z,1.20
2017-08-08T22:25:32.391Z,1.30
2017-08-08T22:27:59.031Z,1.20
2017-08-08T22:30:25.707Z,1.33
2017-08-08T22:32:52.396Z,1.17
2017-08-08T22:35:19.117Z,1.23
2017-08-08T22:37:45.857Z,1.27
2017-08-08T22:40:12.486Z,1.53
2017-08-08T22:42:39.164Z,1.60
2017-08-08T22:45:05.873Z,1.20
2017-08-08T22:47:32.551Z,1.33
2017-08-08T22:49:59.218Z,1.27
2017-08-08T22:52:25.911Z,1.17
2017-08-08T22:54:52.558Z,1.57
2017-08-08T22:57:19.216Z,1.23
2017-08-08T22:59:45.888Z,1.33
2017-08-08T23:02:12.579Z,1.10
2017-08-08T23:04:39.228Z,1.10
2017-08-08T23:07:05.865Z,1.33
2017-08-08T23:09:32.550Z,1.20
2017-08-08T23:11:59.192Z,1.30
2017-08-08T23:14:25.835Z,1.47
2017-08-08T23:16:52.527Z,1.20
2017-08-08T23:19:19.191Z,1.30
2017-08-08T23:21:45.819Z,1.20
2017-08-08T23:24:12.489Z,1.37
2017-08-08T23:26:39.119Z,1.00
2017-08-08T23:29:05.798Z,1.20
2017-08-08T23:31:32.427Z,1.23
2017-08-08T23:33:59.110Z,1.20
2017-08-08T23:36:25.752Z,1.30
2017-08-08T23:38:52.444Z,1.17
2017-08-08T23:41:19.108Z,1.20
2017-08-08T23:43:45.793Z,1.40
2017-08-08T23:46:12.539Z,1.40
2017-08-08T23:48:39.289Z,1.60
2017-08-08T23:51:06.090Z,1.40
2017-08-08T23:53:32.722Z,1.50
2017-08-08T23:55:59.380Z,1.50
2017-08-08T23:58:26.104Z,1.60
